Have a Safe July 4th! 

Flight Track Log - Related Links

Times and Time Zones

All times are in EDT time to prevent confusion due to time zone crossing. See the UAL4528 flight status page for this flight to view local times or setup timezone preferences in your user account.

Time Position Orientation Groundspeed Altitude Reporting Facility
EDT Latitude Longitude Course Direction KTS MPH feet Rate Location/Type
Tue 03:20:15 PM 30.1353 -92.0822 227° Southwest 205 236 5,200  Level Houston Center
Tue 03:21:00 PM 30.0388 -92.1890 227° Southwest  Level FlightAware Approximate
Tue 03:21:17 PM 30.0967 -92.1422 233° Southwest 221 254 6,600  Level Houston Center
Tue 03:22:00 PM 29.9956 -92.2628 231° Southwest  Level FlightAware Approximate
Tue 03:22:19 PM 30.0528 -92.2089 233° Southwest 248 285 8,800  Level Houston Center
Tue 03:23:00 PM 29.9447 -92.3341 231° Southwest  Level FlightAware Approximate
Tue 03:23:21 PM 29.9964 -92.2961 233° Southwest 272 313 10,100  Level Houston Center
Tue 03:24:00 PM 29.9003 -92.4158 249° West  Level FlightAware Approximate
Tue 03:24:23 PM 29.9442 -92.3792 234° Southwest 296 341 11,100  Level Houston Center
Tue 03:25:00 PM 29.8425 -92.4885 227° Southwest  Level FlightAware Approximate
Tue 03:25:25 PM 29.8831 -92.4714 233° Southwest 339 390 11,700  Level Houston Center
Tue 03:26:27 PM 29.8233 -92.5644 234° Southwest 355 409 12,000 145 Climbing Houston Center
Tue 03:27:29 PM 29.7600 -92.6597 233° Southwest 364 419 12,000 720 Level Houston Center
Tue 03:28:32 PM 29.6981 -92.7531 233° Southwest 366 421 13,500 1,440 Climbing Houston Center
Tue 03:29:34 PM 29.6264 -92.8619 233° Southwest 359 413 15,000 1,161 Climbing Houston Center
Tue 03:30:36 PM 29.5653 -92.9539 233° Southwest 360 414 15,900 532 Climbing Houston Center
Tue 03:31:38 PM 29.5014 -93.0500 233° Southwest 371 427 16,100 97 Climbing Houston Center
Tue 03:32:40 PM 29.4858 -93.1717 262° West 406 467 16,100 -48 Level Houston Center
Tue 03:33:42 PM 29.4944 -93.2981 275° West 400 460 16,000 -48 Descending Houston Center
Tue 03:34:44 PM 29.4992 -93.4258 272° West 400 460 16,000  Level Houston Center
Tue 03:35:46 PM 29.5044 -93.5525 273° West 398 458 16,000 -288 Level Houston Center
Tue 03:36:49 PM 29.5094 -93.7011 272° West 388 447 15,400 -1,008 Descending Houston Center
Tue 03:37:51 PM 29.5144 -93.8231 273° West 384 442 13,900 -1,161 Descending Houston Center
Tue 03:38:53 PM 29.5186 -93.9400 272° West 372 428 13,000 -435 Descending Houston Center
Tue 03:39:55 PM 29.5217 -94.0464 272° West 341 392 13,000  Level Houston Center
Tue 03:40:26 PM 29.5258 -94.1131 274° West 331 381 13,000  Level Houston Center
Tue 03:40:57 PM 29.5253 -94.1539 269° West 337 388 13,000  Level Houston Center
Tue 03:41:15 PM 29.5281 -94.1992 274° West 336 387 13,000 97 Level Houston Center
Tue 03:41:59 PM 29.5303 -94.2719 272° West 339 390 13,100  Climbing Houston Center
Tue 03:42:16 PM 29.5317 -94.3189 272° West 351 404 13,000 -97 Descending Houston Center
Tue 03:43:01 PM 29.5478 -94.3800 287° West 347 399 13,000 -194 Level Houston Center
Tue 03:43:18 PM 29.5650 -94.4206 296° West 344 396 12,800 -762 Descending Houston Center
Tue 03:44:04 PM 29.5897 -94.4756 297° West 340 391 12,200 -1,164 Descending Houston Center
Tue 03:44:25 PM 29.6086 -94.5231 295° West 336 387 11,500 -1,313 Descending Houston Center
Tue 03:45:08 PM 29.6411 -94.5983 296° West 342 394 10,800 -816 Descending Houston Center
Tue 03:46:08 PM 29.6811 -94.6906 297° West 342 394 10,100 -1,033 Descending Houston Center
Tue 03:47:10 PM 29.7169 -94.7750 296° West 305 351 8,700 -1,860 Descending Houston Center
Tue 03:48:17 PM 29.7583 -94.8747 296° West 286 329 6,100 -1,258 Descending Houston Center
Tue 03:49:14 PM 29.7850 -94.9364 296° West 281 323 6,100  Level Houston Center
Tue 03:50:16 PM 29.8261 -95.0333 296° West 284 327 6,100  Level Houston Center
Tue 03:51:19 PM 29.8603 -95.1147 296° West 286 329 6,100 -48 Level Houston Center
Tue 03:52:21 PM 29.8942 -95.1961 296° West 285 328 6,000 -48 Descending Houston Center
Tue 03:53:23 PM 29.8989 -95.2811 274° West 266 306 6,000 -49 Level Houston Center
Tue 03:54:24 PM 29.9000 -95.3800 271° West 254 292 5,900  Descending Houston Center
Tue 03:55:25 PM 29.9006 -95.4547 271° West 231 266 6,000 -614 Climbing Houston Center
Tue 03:56:31 PM 29.8992 -95.5319 269° West 219 252 4,600 -1,323 Descending Houston Center
Tue 03:57:32 PM 29.9181 -95.5917 290° West 233 268 3,200 -780 Descending Houston Center
Tue 03:58:34 PM 29.9856 -95.5819 North 221 254 3,000 -244 Descending Houston Center
Tue 03:59:35 PM 29.9922 -95.5161 83° East 191 220 2,700 -295 Descending Houston Center

Login

Don't have an account? Register now (free) for customized features, flight alerts, and more!